Valentine, Arizona
Current Conditions -  °F | °C
As of 11:51 AM on Thursday 23 Oct 2014 (Local Time) from KIGM Reporting Station
Clear Clear  
Wind Chill: 80°   Ceiling: Unl
Heat Index: 80°   Visibility: 10mi
Dew Point: 36°   Wind: 6mph
Humidity: 20%   Direction: NA
Pressure: 30.16"   Gusts: NA
Location:  35.39°N, 113.66°W
Report Text: KIGM 231851Z AUTO VRB05KT 10SM CLR 27/02 A3016 RMK AO2 SLP157 T02670022
Loading
Personal Weather Stations






























Interactive Weather Map
Tropical Storm Tracking
New forecast layout! Learn more

10-Day Weather Forecast

Advertisements
Track Severe Weather on mobile